createdAt,value
2022-08-30T00:00:06.351Z,46.11
2022-08-30T00:01:06.343Z,46.22
2022-08-30T00:02:06.331Z,46.41
2022-08-30T00:03:06.434Z,46.33
2022-08-30T00:04:06.362Z,46.22
2022-08-30T00:05:06.327Z,46.31
2022-08-30T00:06:06.297Z,46.31
2022-08-30T00:07:06.274Z,46.04
2022-08-30T00:08:06.266Z,46.23
2022-08-30T00:09:06.254Z,46.22
2022-08-30T00:10:06.242Z,46.31
2022-08-30T00:11:06.246Z,46.14
2022-08-30T00:12:06.220Z,46.11
2022-08-30T00:13:06.210Z,46.23
2022-08-30T00:14:06.198Z,46.14
2022-08-30T00:15:06.188Z,46.14
2022-08-30T00:16:06.230Z,46.31
2022-08-30T00:17:06.173Z,46.22
2022-08-30T00:18:06.155Z,46.14
2022-08-30T00:19:06.144Z,46.23
2022-08-30T00:20:06.134Z,46.73
2022-08-30T00:21:06.123Z,46.81
2022-08-30T00:22:06.112Z,46.11
2022-08-30T00:23:06.105Z,46.22
2022-08-30T00:24:06.091Z,46.33
2022-08-30T00:25:06.079Z,46.11
2022-08-30T00:26:06.069Z,46.51
2022-08-30T00:27:06.057Z,46.41
2022-08-30T00:28:06.049Z,46.11
2022-08-30T00:29:06.055Z,46.53
2022-08-30T00:30:06.024Z,46.33
2022-08-30T00:31:06.153Z,46.33
2022-08-30T00:32:06.003Z,46.11
2022-08-30T00:33:05.991Z,46.33
2022-08-30T00:34:05.980Z,46.14
2022-08-30T00:35:06.000Z,46.53
2022-08-30T00:36:05.959Z,46.73
2022-08-30T00:37:05.948Z,46.53
2022-08-30T00:38:05.937Z,46.53
2022-08-30T00:39:05.926Z,46.53
2022-08-30T00:40:05.956Z,46.53
2022-08-30T00:41:05.910Z,46.73
2022-08-30T00:42:05.894Z,46.23
2022-08-30T00:43:06.010Z,46.93
2022-08-30T00:44:05.873Z,46.63
2022-08-30T00:45:05.861Z,46.73
2022-08-30T00:46:05.913Z,46.53
2022-08-30T00:47:05.855Z,45.84
2022-08-30T00:48:05.828Z,46.73
2022-08-30T00:49:05.819Z,46.73
2022-08-30T00:50:05.808Z,46.73
2022-08-30T00:51:05.797Z,46.04
2022-08-30T00:52:05.786Z,46.73
2022-08-30T00:53:05.778Z,46.93
2022-08-30T00:54:05.765Z,46.73
2022-08-30T00:55:05.752Z,46.33
2022-08-30T00:56:05.741Z,46.14
2022-08-30T00:57:05.729Z,45.94
2022-08-30T00:58:05.719Z,46.53
2022-08-30T00:59:05.715Z,45.94
2022-08-30T01:00:05.697Z,46.83
2022-08-30T01:01:05.709Z,46.33
2022-08-30T01:02:05.676Z,46.04
2022-08-30T01:03:05.665Z,46.31
2022-08-30T01:04:05.654Z,46.73
2022-08-30T01:05:05.665Z,47.13
2022-08-30T01:06:05.633Z,46.04
2022-08-30T01:07:05.620Z,46.73
2022-08-30T01:08:05.610Z,46.61
2022-08-30T01:09:05.601Z,46.04
2022-08-30T01:10:05.588Z,46.14
2022-08-30T01:11:05.584Z,46.14
2022-08-30T01:12:05.567Z,45.84
2022-08-30T01:13:05.555Z,45.84
2022-08-30T01:14:05.544Z,45.84
2022-08-30T01:15:05.533Z,46.83
2022-08-30T01:16:05.620Z,46.70
2022-08-30T01:17:05.542Z,45.94
2022-08-30T01:18:06.280Z,46.63
2022-08-30T01:19:05.490Z,46.83
2022-08-30T01:20:05.478Z,46.93
2022-08-30T01:21:05.468Z,46.83
2022-08-30T01:22:05.457Z,46.23
2022-08-30T01:23:05.458Z,46.73
2022-08-30T01:24:05.437Z,46.63
2022-08-30T01:25:05.424Z,45.84
2022-08-30T01:26:05.415Z,45.74
2022-08-30T01:27:05.402Z,46.93
2022-08-30T01:28:05.392Z,47.03
2022-08-30T01:29:05.389Z,46.33
2022-08-30T01:30:05.375Z,46.83
2022-08-30T01:31:05.466Z,46.93
2022-08-30T01:32:05.348Z,46.73
2022-08-30T01:33:05.337Z,45.74
2022-08-30T01:34:05.327Z,47.03
2022-08-30T01:35:05.335Z,46.44
2022-08-30T01:36:05.305Z,46.14
2022-08-30T01:37:05.295Z,46.73
2022-08-30T01:38:05.283Z,46.93
2022-08-30T01:39:05.271Z,46.73
2022-08-30T01:40:05.373Z,47.03
2022-08-30T01:41:05.257Z,46.14
2022-08-30T01:42:05.242Z,46.33
2022-08-30T01:43:05.228Z,46.73
2022-08-30T01:44:05.217Z,46.44
2022-08-30T01:45:05.209Z,46.93
2022-08-30T01:46:05.278Z,46.44
2022-08-30T01:47:05.217Z,46.63
2022-08-30T01:48:06.610Z,46.44
2022-08-30T01:49:05.163Z,46.44
2022-08-30T01:50:05.151Z,47.03
2022-08-30T01:51:05.142Z,46.53
2022-08-30T01:52:05.133Z,46.33
2022-08-30T01:53:05.135Z,46.63
2022-08-30T01:54:05.108Z,46.63
2022-08-30T01:55:05.107Z,46.44
2022-08-30T01:56:05.086Z,46.44
2022-08-30T01:57:05.075Z,46.83
2022-08-30T01:58:05.065Z,46.44
2022-08-30T01:59:05.060Z,46.44
2022-08-30T02:00:05.044Z,46.33
2022-08-30T02:01:05.088Z,46.63
2022-08-30T02:02:05.020Z,46.44
2022-08-30T02:03:05.013Z,46.44
2022-08-30T02:04:05.126Z,46.33
2022-08-30T02:05:05.003Z,46.73
2022-08-30T02:06:04.978Z,46.44
2022-08-30T02:07:04.965Z,46.63
2022-08-30T02:08:04.955Z,46.53
2022-08-30T02:09:04.944Z,46.44
2022-08-30T02:10:04.936Z,46.53
2022-08-30T02:11:04.958Z,46.73
2022-08-30T02:12:04.911Z,46.53
2022-08-30T02:13:04.901Z,46.23
2022-08-30T02:14:04.890Z,46.53
2022-08-30T02:15:04.880Z,46.44
2022-08-30T02:16:04.868Z,46.53
2022-08-30T02:17:04.914Z,46.44
2022-08-30T02:18:04.845Z,46.44
2022-08-30T02:19:04.838Z,46.44
2022-08-30T02:20:04.825Z,46.23
2022-08-30T02:21:04.813Z,46.53
2022-08-30T02:22:04.803Z,46.23
2022-08-30T02:23:04.799Z,46.75
2022-08-30T02:24:04.780Z,46.23
2022-08-30T02:25:04.769Z,46.23
2022-08-30T02:26:04.759Z,46.63
2022-08-30T02:27:04.748Z,46.44
2022-08-30T02:28:04.736Z,46.53
2022-08-30T02:29:04.755Z,46.53
2022-08-30T02:30:04.716Z,46.63
2022-08-30T02:31:04.832Z,46.44
2022-08-30T02:32:04.863Z,46.66
2022-08-30T02:33:04.691Z,46.63
2022-08-30T02:34:04.690Z,46.63
2022-08-30T02:35:04.692Z,46.53
2022-08-30T02:36:04.653Z,46.44
2022-08-30T02:37:04.643Z,46.44
2022-08-30T02:38:04.627Z,46.23
2022-08-30T02:39:04.621Z,46.44
2022-08-30T02:40:04.742Z,46.44
2022-08-30T02:41:04.604Z,46.33
2022-08-30T02:42:04.585Z,46.44
2022-08-30T02:43:04.573Z,46.53
2022-08-30T02:44:04.562Z,46.53
2022-08-30T02:45:04.557Z,46.23
2022-08-30T02:46:04.592Z,46.53
2022-08-30T02:47:04.552Z,46.44
2022-08-30T02:48:04.518Z,46.53
2022-08-30T02:49:29.939Z,46.45
2022-08-30T02:50:05.497Z,46.44
2022-08-30T02:51:04.486Z,46.53
2022-08-30T02:52:04.481Z,46.53
2022-08-30T02:53:04.471Z,46.53
2022-08-30T02:54:04.453Z,46.33
2022-08-30T02:55:04.457Z,46.63
2022-08-30T02:56:04.430Z,46.53
2022-08-30T02:57:04.422Z,46.44
2022-08-30T02:58:04.410Z,46.53
2022-08-30T02:59:04.427Z,46.53
2022-08-30T03:00:04.387Z,46.53
2022-08-30T03:01:04.468Z,46.53
2022-08-30T03:02:04.365Z,46.53
2022-08-30T03:03:04.354Z,46.33
2022-08-30T03:04:04.381Z,46.53
2022-08-30T03:05:04.353Z,46.44
2022-08-30T03:06:04.322Z,46.33
2022-08-30T03:07:04.311Z,46.53
2022-08-30T03:08:04.300Z,46.33
2022-08-30T03:09:04.289Z,46.53
2022-08-30T03:10:04.278Z,47.03
2022-08-30T03:11:04.288Z,46.53
2022-08-30T03:12:04.256Z,46.33
2022-08-30T03:13:04.245Z,46.55
2022-08-30T03:14:04.238Z,46.44
2022-08-30T03:15:04.224Z,46.45
2022-08-30T03:16:04.267Z,46.53
2022-08-30T03:17:04.208Z,46.53
2022-08-30T03:18:04.191Z,46.53
2022-08-30T03:19:04.182Z,46.53
2022-08-30T03:20:04.170Z,46.55
2022-08-30T03:21:04.158Z,46.53
2022-08-30T03:22:04.146Z,46.36
2022-08-30T03:23:04.158Z,46.44
2022-08-30T03:24:04.126Z,46.33
2022-08-30T03:25:04.114Z,46.63
2022-08-30T03:26:04.104Z,46.33
2022-08-30T03:27:04.094Z,46.36
2022-08-30T03:28:04.099Z,46.55
2022-08-30T03:29:04.102Z,46.36
2022-08-30T03:30:04.064Z,46.55
2022-08-30T03:31:04.050Z,46.55
2022-08-30T03:32:04.078Z,46.55
2022-08-30T03:33:04.027Z,46.53
2022-08-30T03:34:04.017Z,46.66
2022-08-30T03:35:04.013Z,46.66
2022-08-30T03:36:03.993Z,46.45
2022-08-30T03:37:03.984Z,46.55
2022-08-30T03:38:03.975Z,46.45
2022-08-30T03:39:03.962Z,46.55
2022-08-30T03:40:03.980Z,46.55
2022-08-30T03:41:03.964Z,46.75
2022-08-30T03:42:03.929Z,46.63
2022-08-30T03:43:03.917Z,46.66
2022-08-30T03:44:03.906Z,46.36
2022-08-30T03:45:03.896Z,46.45
2022-08-30T03:46:03.936Z,46.66
2022-08-30T03:47:03.880Z,46.45
2022-08-30T03:48:03.863Z,46.45
2022-08-30T03:49:03.853Z,46.55
2022-08-30T03:50:03.842Z,46.36
2022-08-30T03:51:03.830Z,46.36
2022-08-30T03:52:03.820Z,46.66
2022-08-30T03:53:03.816Z,46.75
2022-08-30T03:54:03.799Z,46.26
2022-08-30T03:55:03.787Z,46.66
2022-08-30T03:56:03.776Z,46.66
2022-08-30T03:57:03.768Z,46.23
2022-08-30T03:58:03.755Z,46.75
2022-08-30T03:59:03.765Z,46.16
2022-08-30T04:00:03.734Z,46.36
2022-08-30T04:01:03.811Z,46.45
2022-08-30T04:02:03.763Z,46.66
2022-08-30T04:03:03.700Z,46.36
2022-08-30T04:04:03.691Z,46.16
2022-08-30T04:05:03.685Z,46.66
2022-08-30T04:06:03.669Z,46.26
2022-08-30T04:07:03.656Z,46.75
2022-08-30T04:08:03.646Z,46.36
2022-08-30T04:09:03.635Z,46.55
2022-08-30T04:10:03.624Z,46.16
2022-08-30T04:11:05.108Z,46.36
2022-08-30T04:12:03.604Z,46.16
2022-08-30T04:13:03.592Z,46.26
2022-08-30T04:14:03.581Z,46.36
2022-08-30T04:15:03.570Z,46.26
2022-08-30T04:16:03.600Z,46.36
2022-08-30T04:17:03.578Z,46.66
2022-08-30T04:18:03.536Z,46.36
2022-08-30T04:19:03.526Z,46.16
2022-08-30T04:20:03.513Z,46.45
2022-08-30T04:21:03.503Z,46.36
2022-08-30T04:22:03.495Z,46.36
2022-08-30T04:23:03.497Z,46.36
2022-08-30T04:24:03.470Z,46.36
2022-08-30T04:25:03.460Z,46.36
2022-08-30T04:26:03.450Z,46.26
2022-08-30T04:27:03.438Z,46.16
2022-08-30T04:28:03.427Z,46.26
2022-08-30T04:29:03.437Z,46.23
2022-08-30T04:30:03.405Z,46.36
2022-08-30T04:32:19.063Z,46.45
2022-08-30T04:33:19.049Z,46.66
2022-08-30T04:34:19.066Z,46.66
2022-08-30T04:35:19.027Z,46.85
2022-08-30T04:36:19.019Z,46.66
2022-08-30T04:37:19.006Z,46.55
2022-08-30T04:38:18.994Z,46.36
2022-08-30T04:39:18.983Z,46.55
2022-08-30T04:40:19.055Z,46.55
2022-08-30T04:41:18.961Z,46.55
2022-08-30T04:42:18.951Z,46.36
2022-08-30T04:43:18.941Z,46.66
2022-08-30T04:44:19.525Z,46.55
2022-08-30T04:45:18.918Z,46.55
2022-08-30T04:46:19.111Z,46.85
2022-08-30T04:47:18.895Z,46.45
2022-08-30T04:48:18.885Z,46.66
2022-08-30T04:49:18.874Z,46.55
2022-08-30T04:50:18.864Z,46.45
2022-08-30T04:51:18.854Z,46.36
2022-08-30T04:52:18.858Z,46.36
2022-08-30T04:53:18.830Z,46.55
2022-08-30T04:54:18.829Z,46.55
2022-08-30T04:55:20.363Z,46.55
2022-08-30T04:56:18.798Z,46.55
2022-08-30T04:57:18.787Z,46.55
2022-08-30T04:58:18.783Z,46.55
2022-08-30T04:59:18.766Z,46.85
2022-08-30T05:00:18.755Z,46.55
2022-08-30T05:01:20.083Z,46.45
2022-08-30T05:02:18.742Z,46.55
2022-08-30T05:03:18.785Z,46.66
2022-08-30T05:04:18.717Z,46.45
2022-08-30T05:05:18.700Z,46.26
2022-08-30T05:06:18.689Z,46.45
2022-08-30T05:07:18.683Z,46.45
2022-08-30T05:08:23.248Z,46.55
2022-08-30T05:09:19.686Z,46.55
2022-08-30T05:10:18.645Z,46.55
2022-08-30T05:11:18.634Z,46.45
2022-08-30T05:12:18.623Z,46.55
2022-08-30T05:13:18.734Z,46.55
2022-08-30T05:14:18.603Z,46.45
2022-08-30T05:15:18.597Z,46.66
2022-08-30T05:16:18.621Z,46.66
2022-08-30T05:17:18.570Z,46.66
2022-08-30T05:18:18.562Z,46.53
2022-08-30T05:19:18.545Z,46.63
2022-08-30T05:20:18.538Z,46.66
2022-08-30T05:21:18.546Z,46.55
2022-08-30T05:22:18.514Z,46.36
2022-08-30T05:23:18.751Z,46.55
2022-08-30T05:24:18.492Z,46.44
2022-08-30T05:25:18.481Z,46.44
2022-08-30T05:26:18.471Z,46.53
2022-08-30T05:27:18.475Z,46.75
2022-08-30T05:28:20.979Z,46.85
2022-08-30T05:29:18.436Z,46.73
2022-08-30T05:30:18.428Z,47.05
2022-08-30T05:31:18.459Z,46.23
2022-08-30T05:32:18.405Z,46.44
2022-08-30T05:33:18.415Z,47.03
2022-08-30T05:34:18.387Z,46.73
2022-08-30T05:35:22.200Z,47.03
2022-08-30T05:36:19.360Z,46.04
2022-08-30T05:37:18.349Z,47.13
2022-08-30T05:38:18.506Z,46.95
2022-08-30T05:39:18.335Z,45.74
2022-08-30T05:40:18.394Z,46.36
2022-08-30T05:41:18.306Z,46.63
2022-08-30T05:42:18.301Z,46.36
2022-08-30T05:43:18.284Z,46.93
2022-08-30T05:44:18.276Z,46.63
2022-08-30T05:45:18.292Z,46.93
2022-08-30T05:46:18.347Z,46.04
2022-08-30T05:47:18.240Z,46.04
2022-08-30T05:48:18.416Z,45.94
2022-08-30T05:49:18.226Z,47.22
2022-08-30T05:50:18.208Z,47.03
2022-08-30T05:51:18.203Z,46.44
2022-08-30T05:52:18.185Z,46.33
2022-08-30T05:53:18.184Z,46.04
2022-08-30T05:54:18.163Z,45.84
2022-08-30T05:55:18.154Z,45.84
2022-08-30T05:56:18.142Z,47.13
2022-08-30T05:57:18.137Z,46.73
2022-08-30T05:58:18.437Z,46.83
2022-08-30T05:59:18.109Z,45.94
2022-08-30T06:00:18.099Z,45.84
2022-08-30T06:01:18.087Z,46.73
2022-08-30T06:02:18.156Z,46.63
2022-08-30T06:03:18.116Z,46.73
2022-08-30T06:04:18.054Z,46.23
2022-08-30T06:05:18.043Z,46.53
2022-08-30T06:06:18.033Z,46.53
2022-08-30T06:07:21.112Z,46.44
2022-08-30T06:08:18.305Z,46.14
2022-08-30T06:09:18.020Z,46.83
2022-08-30T06:10:17.989Z,46.83
2022-08-30T06:11:17.978Z,46.04
2022-08-30T06:12:17.967Z,46.23
2022-08-30T06:13:17.955Z,46.23
2022-08-30T06:14:17.946Z,46.14
2022-08-30T06:15:17.940Z,46.33
2022-08-30T06:16:18.050Z,46.33
2022-08-30T06:17:17.912Z,46.23
2022-08-30T06:18:18.224Z,46.33
2022-08-30T06:19:18.889Z,46.23
2022-08-30T06:20:17.879Z,46.23
2022-08-30T06:21:17.874Z,46.23
2022-08-30T06:22:17.858Z,46.23
2022-08-30T06:23:17.847Z,46.33
2022-08-30T06:24:17.835Z,45.94
2022-08-30T06:25:17.824Z,46.23
2022-08-30T06:26:17.813Z,45.94
2022-08-30T06:27:17.833Z,45.94
2022-08-30T06:28:17.963Z,46.53
2022-08-30T06:29:17.781Z,46.33
2022-08-30T06:30:18.978Z,45.94
2022-08-30T06:31:17.811Z,45.94
2022-08-30T06:32:17.750Z,46.14
2022-08-30T06:33:17.743Z,45.84
2022-08-30T06:34:17.728Z,46.14
2022-08-30T06:35:17.720Z,45.84
2022-08-30T06:36:17.704Z,45.52
2022-08-30T06:37:29.881Z,45.45
2022-08-30T06:38:18.689Z,45.74
2022-08-30T06:39:17.671Z,45.54
2022-08-30T06:40:17.705Z,45.54
2022-08-30T06:41:17.649Z,45.32
2022-08-30T06:42:17.638Z,45.54
2022-08-30T06:43:17.632Z,45.32
2022-08-30T06:44:17.637Z,46.31
2022-08-30T06:45:17.607Z,45.62
2022-08-30T06:46:17.637Z,45.64
2022-08-30T06:47:17.584Z,46.22
2022-08-30T06:48:17.810Z,45.62
2022-08-30T06:49:17.562Z,46.11
2022-08-30T06:50:17.634Z,45.72
2022-08-30T06:51:17.541Z,45.72
2022-08-30T06:52:17.533Z,45.82
2022-08-30T06:53:17.519Z,45.82
2022-08-30T06:54:17.508Z,46.01
2022-08-30T06:55:17.497Z,45.72
2022-08-30T06:56:17.496Z,45.92
2022-08-30T06:57:17.475Z,45.72
2022-08-30T06:58:17.703Z,45.92
2022-08-30T06:59:17.454Z,45.82
2022-08-30T07:00:17.443Z,46.22
2022-08-30T07:01:17.431Z,45.62
2022-08-30T07:02:17.506Z,46.01
2022-08-30T07:03:17.494Z,46.01
2022-08-30T07:04:17.401Z,45.23
2022-08-30T07:05:18.994Z,45.62
2022-08-30T07:06:17.378Z,45.52
2022-08-30T07:07:17.366Z,45.72
2022-08-30T07:08:17.542Z,45.79
2022-08-30T07:09:17.386Z,45.40
2022-08-30T07:10:17.334Z,45.70
2022-08-30T07:11:17.323Z,45.40
2022-08-30T07:12:17.313Z,45.40
2022-08-30T07:13:17.472Z,45.60
2022-08-30T07:14:17.297Z,45.70
2022-08-30T07:15:17.280Z,45.60
2022-08-30T07:16:17.326Z,45.40
2022-08-30T07:17:17.257Z,45.60
2022-08-30T07:18:17.248Z,45.40
2022-08-30T07:19:20.444Z,45.50
2022-08-30T07:20:17.234Z,46.00
2022-08-30T07:21:17.215Z,46.00
2022-08-30T07:22:17.203Z,46.19
2022-08-30T07:23:17.390Z,45.50
2022-08-30T07:24:17.183Z,45.79
2022-08-30T07:25:17.170Z,45.79
2022-08-30T07:26:17.167Z,45.48
2022-08-30T07:27:17.149Z,46.19
2022-08-30T07:28:17.138Z,45.70
2022-08-30T07:29:17.128Z,45.89
2022-08-30T07:30:17.118Z,45.70
2022-08-30T07:31:17.124Z,45.70
2022-08-30T07:32:17.126Z,45.97
2022-08-30T07:33:17.293Z,45.70
2022-08-30T07:34:17.072Z,45.50
2022-08-30T07:35:17.061Z,46.26
2022-08-30T07:36:17.051Z,45.97
2022-08-30T07:37:18.127Z,45.48
2022-08-30T07:38:17.036Z,45.97
2022-08-30T07:39:17.025Z,45.60
2022-08-30T07:40:17.121Z,45.97
2022-08-30T07:41:16.997Z,45.79
2022-08-30T07:42:16.986Z,45.60
2022-08-30T07:43:17.061Z,45.97
2022-08-30T07:44:16.971Z,45.79
2022-08-30T07:45:16.954Z,45.79
2022-08-30T07:46:17.009Z,45.30
2022-08-30T07:47:16.931Z,45.79
2022-08-30T07:48:16.921Z,45.57
2022-08-30T07:49:16.916Z,45.87
2022-08-30T07:50:16.914Z,45.87
2022-08-30T07:51:16.887Z,45.48
2022-08-30T07:52:16.876Z,45.28
2022-08-30T07:53:17.013Z,45.38
2022-08-30T07:54:16.856Z,45.38
2022-08-30T07:55:16.843Z,45.38
2022-08-30T07:56:16.839Z,45.38
2022-08-30T07:57:16.823Z,45.28
2022-08-30T07:58:16.980Z,45.38
2022-08-30T07:59:16.802Z,45.57
2022-08-30T08:00:16.791Z,45.38
2022-08-30T08:01:16.875Z,45.38
2022-08-30T08:02:16.789Z,45.48
2022-08-30T08:03:16.756Z,45.28
2022-08-30T08:04:16.746Z,45.57
2022-08-30T08:05:18.724Z,45.28
2022-08-30T08:06:16.725Z,45.48
2022-08-30T08:07:16.713Z,45.28
2022-08-30T08:08:16.902Z,45.28
2022-08-30T08:09:16.692Z,45.67
2022-08-30T08:10:16.685Z,45.87
2022-08-30T08:11:16.716Z,45.57
2022-08-30T08:12:16.669Z,45.48
2022-08-30T08:13:16.651Z,45.38
2022-08-30T08:14:16.645Z,45.48
2022-08-30T08:15:16.627Z,45.78
2022-08-30T08:16:16.650Z,45.57
2022-08-30T08:17:16.607Z,45.57
2022-08-30T08:18:16.736Z,45.87
2022-08-30T08:19:16.583Z,45.57
2022-08-30T08:20:16.603Z,45.60
2022-08-30T08:21:16.561Z,45.57
2022-08-30T08:22:21.328Z,45.48
2022-08-30T08:23:17.537Z,46.07
2022-08-30T08:24:16.528Z,45.57
2022-08-30T08:25:16.516Z,45.57
2022-08-30T08:26:16.512Z,45.28
2022-08-30T08:27:16.502Z,45.28
2022-08-30T08:28:16.648Z,45.38
2022-08-30T08:29:16.474Z,45.28
2022-08-30T08:30:16.462Z,45.38
2022-08-30T08:31:16.516Z,45.18
2022-08-30T08:32:16.447Z,45.38
2022-08-30T08:33:16.450Z,44.98
2022-08-30T08:34:16.420Z,45.18
2022-08-30T08:35:16.409Z,44.98
2022-08-30T08:36:16.396Z,45.38
2022-08-30T08:37:16.389Z,45.67
2022-08-30T08:38:16.570Z,45.57
2022-08-30T08:39:16.364Z,45.48
2022-08-30T08:40:16.468Z,44.59
2022-08-30T08:41:16.345Z,44.87
2022-08-30T08:42:16.333Z,44.69
2022-08-30T08:43:16.322Z,44.59
2022-08-30T08:44:16.326Z,44.59
2022-08-30T08:45:16.300Z,44.59
2022-08-30T08:46:16.438Z,45.16
2022-08-30T08:47:16.279Z,44.49
2022-08-30T08:48:16.482Z,44.67
2022-08-30T08:49:16.256Z,44.79
2022-08-30T08:50:17.313Z,44.67
2022-08-30T08:51:16.234Z,44.57
2022-08-30T08:52:16.222Z,44.27
2022-08-30T08:53:20.467Z,44.47
2022-08-30T08:54:17.202Z,44.47
2022-08-30T08:55:16.189Z,44.47
2022-08-30T08:56:16.186Z,45.06
2022-08-30T08:57:17.756Z,44.87
2022-08-30T08:58:16.383Z,44.27
2022-08-30T08:59:16.151Z,44.84
2022-08-30T09:00:16.137Z,44.84
2022-08-30T09:01:16.241Z,44.74
2022-08-30T09:02:16.121Z,44.67
2022-08-30T09:03:16.108Z,43.86
2022-08-30T09:04:16.093Z,44.06
2022-08-30T09:05:16.141Z,44.15
2022-08-30T09:06:16.071Z,44.74
2022-08-30T09:07:16.060Z,44.35
2022-08-30T09:08:16.055Z,44.35
2022-08-30T09:09:16.037Z,44.35
2022-08-30T09:10:18.338Z,44.74
2022-08-30T09:11:17.021Z,44.62
2022-08-30T09:12:16.005Z,43.96
2022-08-30T09:13:16.417Z,44.06
2022-08-30T09:14:15.990Z,44.15
2022-08-30T09:15:15.977Z,44.25
2022-08-30T09:17:16.959Z,44.03
2022-08-30T09:18:19.267Z,44.25
2022-08-30T09:19:15.928Z,44.55
2022-08-30T09:20:15.935Z,44.35
2022-08-30T09:21:15.917Z,44.35
2022-08-30T09:22:15.897Z,44.45
2022-08-30T09:23:15.893Z,44.45
2022-08-30T09:24:15.875Z,44.45
2022-08-30T09:25:16.876Z,44.55
2022-08-30T09:26:15.854Z,44.35
2022-08-30T09:27:15.842Z,44.55
2022-08-30T09:28:15.897Z,44.55
2022-08-30T09:29:15.820Z,44.55
2022-08-30T09:30:15.809Z,44.65
2022-08-30T09:31:15.831Z,44.15
2022-08-30T09:32:25.277Z,44.25
2022-08-30T09:33:16.779Z,44.25
2022-08-30T09:34:15.766Z,44.06
2022-08-30T09:35:15.762Z,44.15
2022-08-30T09:36:15.744Z,43.96
2022-08-30T09:37:15.742Z,44.06
2022-08-30T09:38:15.868Z,43.86
2022-08-30T09:39:15.711Z,43.96
2022-08-30T09:40:15.815Z,44.47
2022-08-30T09:41:15.689Z,44.45
2022-08-30T09:42:15.679Z,43.86
2022-08-30T09:43:15.699Z,43.86
2022-08-30T09:44:15.658Z,44.06
2022-08-30T09:45:15.647Z,44.06
2022-08-30T09:46:16.277Z,44.06
2022-08-30T09:47:15.625Z,44.25
2022-08-30T09:48:15.788Z,44.84
2022-08-30T09:49:15.608Z,44.25
2022-08-30T09:50:15.596Z,44.74
2022-08-30T09:51:15.580Z,44.25
2022-08-30T09:52:15.570Z,44.55
2022-08-30T09:53:15.560Z,44.35
2022-08-30T09:54:18.356Z,44.45
2022-08-30T09:55:15.544Z,44.15
2022-08-30T09:56:15.528Z,44.33
2022-08-30T09:57:15.517Z,44.55
2022-08-30T09:58:15.505Z,44.35
2022-08-30T09:59:15.495Z,44.84
2022-08-30T10:00:15.489Z,44.25
2022-08-30T10:01:15.510Z,44.45
2022-08-30T10:02:15.514Z,44.33
2022-08-30T10:03:26.153Z,44.13
2022-08-30T10:04:16.439Z,44.23
2022-08-30T10:05:15.434Z,43.93
2022-08-30T10:06:15.428Z,44.03
2022-08-30T10:07:15.407Z,43.74
2022-08-30T10:08:15.408Z,43.93
2022-08-30T10:09:15.393Z,43.74
2022-08-30T10:10:15.373Z,43.74
2022-08-30T10:11:15.363Z,43.54
2022-08-30T10:12:15.476Z,43.74
2022-08-30T10:13:15.503Z,43.52
2022-08-30T10:14:15.331Z,43.34
2022-08-30T10:15:15.321Z,43.44
2022-08-30T10:16:15.309Z,43.13
2022-08-30T10:17:15.297Z,43.03
2022-08-30T10:18:15.305Z,43.42
2022-08-30T10:19:15.276Z,43.71
2022-08-30T10:20:15.267Z,42.83
2022-08-30T10:21:19.031Z,43.71
2022-08-30T10:22:15.246Z,42.73
2022-08-30T10:23:15.235Z,43.62
2022-08-30T10:24:20.978Z,42.73
2022-08-30T10:25:16.363Z,42.93
2022-08-30T10:26:15.202Z,43.03
2022-08-30T10:27:15.209Z,43.13
2022-08-30T10:28:15.177Z,43.03
2022-08-30T10:29:15.167Z,42.91
2022-08-30T10:30:15.164Z,42.83
2022-08-30T10:31:15.145Z,42.81
2022-08-30T10:32:15.136Z,42.91
2022-08-30T10:33:15.123Z,42.73
2022-08-30T10:34:15.115Z,42.71
2022-08-30T10:35:18.774Z,42.93
2022-08-30T10:36:15.099Z,42.71
2022-08-30T10:37:16.577Z,42.71
2022-08-30T10:38:15.070Z,42.81
2022-08-30T10:39:15.059Z,42.91
2022-08-30T10:40:15.067Z,42.32
2022-08-30T10:41:15.036Z,43.01
2022-08-30T10:42:15.031Z,41.77
2022-08-30T10:43:15.015Z,41.67
2022-08-30T10:44:15.004Z,41.77
2022-08-30T10:45:14.994Z,41.86
2022-08-30T10:46:14.984Z,41.86
2022-08-30T10:47:22.997Z,41.86
2022-08-30T10:48:15.990Z,40.45
2022-08-30T10:49:14.955Z,40.35
2022-08-30T10:50:14.940Z,40.33
2022-08-30T10:51:14.929Z,39.54
2022-08-30T10:52:14.917Z,39.51
2022-08-30T10:53:14.919Z,38.20
2022-08-30T10:54:18.500Z,37.35
2022-08-30T10:55:14.885Z,36.85
2022-08-30T10:56:14.874Z,36.24
2022-08-30T10:57:14.864Z,36.63
2022-08-30T10:58:14.853Z,36.85
2022-08-30T10:59:14.864Z,36.24
2022-08-30T11:00:14.838Z,36.55
2022-08-30T11:01:14.864Z,37.16
2022-08-30T11:02:14.813Z,37.14
2022-08-30T11:03:14.801Z,36.21
2022-08-30T11:04:14.788Z,34.73
2022-08-30T11:05:14.778Z,35.47
2022-08-30T11:06:14.775Z,35.36
2022-08-30T11:07:14.754Z,34.97
2022-08-30T11:08:22.126Z,35.67
2022-08-30T11:09:15.737Z,35.30
2022-08-30T11:10:14.722Z,34.63
2022-08-30T11:11:14.712Z,35.94
2022-08-30T11:12:14.705Z,36.05
2022-08-30T11:13:14.688Z,36.34
2022-08-30T11:14:14.679Z,37.04
2022-08-30T11:15:14.668Z,36.65
2022-08-30T11:16:14.659Z,36.57
2022-08-30T11:17:14.646Z,37.16
2022-08-30T11:18:14.641Z,37.08
2022-08-30T11:19:14.623Z,37.06
2022-08-30T11:20:14.613Z,36.65
2022-08-30T11:21:14.601Z,36.75
2022-08-30T11:22:14.594Z,37.55
2022-08-30T11:23:14.582Z,36.98
2022-08-30T11:24:14.575Z,37.47
2022-08-30T11:25:14.561Z,37.37
2022-08-30T11:26:15.968Z,37.27
2022-08-30T11:27:15.537Z,37.19
2022-08-30T11:28:17.139Z,37.08
2022-08-30T11:29:15.524Z,37.79
2022-08-30T11:30:19.236Z,37.59
2022-08-30T11:31:15.769Z,38.28
2022-08-30T11:32:14.484Z,37.98
2022-08-30T11:33:14.471Z,37.69
2022-08-30T11:34:14.462Z,37.39
2022-08-30T11:35:14.457Z,37.37
2022-08-30T11:36:14.441Z,37.08
2022-08-30T11:37:14.428Z,37.06
2022-08-30T11:38:14.418Z,36.83
2022-08-30T11:39:14.410Z,35.94
2022-08-30T11:40:17.345Z,36.52
2022-08-30T11:41:14.399Z,36.23
2022-08-30T11:42:14.378Z,36.33
2022-08-30T11:43:14.365Z,36.05
2022-08-30T11:44:14.355Z,36.24
2022-08-30T11:45:14.346Z,37.04
2022-08-30T11:46:14.681Z,36.85
2022-08-30T11:47:14.328Z,36.75
2022-08-30T11:48:14.312Z,37.06
2022-08-30T11:49:14.299Z,37.45
2022-08-30T11:50:14.326Z,37.06
2022-08-30T11:51:14.279Z,37.06
2022-08-30T11:52:28.061Z,37.26
2022-08-30T11:53:15.549Z,37.16
2022-08-30T11:54:14.246Z,37.24
2022-08-30T11:55:14.235Z,37.14
2022-08-30T11:56:14.224Z,36.85
2022-08-30T11:57:14.213Z,36.83
2022-08-30T11:58:14.202Z,36.63
2022-08-30T11:59:14.691Z,36.83
2022-08-30T12:00:14.181Z,37.04
2022-08-30T12:01:32.033Z,36.73
2022-08-30T12:02:15.308Z,36.85
2022-08-30T12:03:14.381Z,36.75
2022-08-30T12:04:15.403Z,36.93
2022-08-30T12:05:14.134Z,36.83
2022-08-30T12:06:14.116Z,36.54
2022-08-30T12:07:14.107Z,36.73
2022-08-30T12:08:14.161Z,36.75
2022-08-30T12:09:14.086Z,36.85
2022-08-30T12:10:14.073Z,36.75
2022-08-30T12:11:14.076Z,36.44
2022-08-30T12:12:14.053Z,36.26
2022-08-30T12:13:14.164Z,37.43
2022-08-30T12:14:17.296Z,37.63
2022-08-30T12:15:14.024Z,37.54
2022-08-30T12:16:14.310Z,37.26
2022-08-30T12:17:14.006Z,37.06
2022-08-30T12:18:15.757Z,37.16
2022-08-30T12:19:13.976Z,36.96
2022-08-30T12:20:13.966Z,37.35
2022-08-30T12:21:13.955Z,37.45
2022-08-30T12:22:13.945Z,37.16
2022-08-30T12:23:13.942Z,37.45
2022-08-30T12:24:13.925Z,37.73
2022-08-30T12:25:13.911Z,36.75
2022-08-30T12:26:13.903Z,37.73
2022-08-30T12:27:13.891Z,37.24
2022-08-30T12:28:14.075Z,37.16
2022-08-30T12:29:13.877Z,37.24
2022-08-30T12:30:13.860Z,37.34
2022-08-30T12:31:13.849Z,37.43
2022-08-30T12:32:13.905Z,37.14
2022-08-30T12:33:13.827Z,37.45
2022-08-30T12:34:13.817Z,37.35
2022-08-30T12:35:13.813Z,37.16
2022-08-30T12:36:13.837Z,37.04
2022-08-30T12:37:13.787Z,37.43
2022-08-30T12:38:14.775Z,37.14
2022-08-30T12:39:13.766Z,37.04
2022-08-30T12:40:13.805Z,36.73
2022-08-30T12:41:13.764Z,36.93
2022-08-30T12:42:17.675Z,36.83
2022-08-30T12:43:13.725Z,36.63
2022-08-30T12:44:13.713Z,36.63
2022-08-30T12:45:13.705Z,36.83
2022-08-30T12:46:15.183Z,36.83
2022-08-30T12:47:13.696Z,36.73
2022-08-30T12:48:13.670Z,36.73
2022-08-30T12:49:13.661Z,36.83
2022-08-30T12:50:15.264Z,36.63
2022-08-30T12:51:13.642Z,36.24
2022-08-30T12:52:13.632Z,36.63
2022-08-30T12:53:14.260Z,36.24
2022-08-30T12:54:13.609Z,36.63